Time;durP1;ratioP1;P1;durP2;ratioP2;P2;SDS_P1;SDS_P2;PMS_P1;PMS_P2;Temp;Humidity;BMP_temperature;BMP_pressure;BME280_temperature;BME280_humidity;BME280_pressure;Samples;Min_cycle;Max_cycle;Signal;HPM_P1;HPM_P2
2022/08/04 00:01:49;;;;;;;14.02;6.80;;;;;;;21.01;58.37;99454.88;8364024;28;20044;-87
2022/08/04 00:06:03;;;;;;;13.15;6.43;;;;;;;20.93;58.58;99453.22;8361580;28;20063;-88
2022/08/04 00:10:05;;;;;;;9.43;6.68;;;;;;;20.88;58.88;99445.28;8360616;28;20060;-87
2022/08/04 00:14:15;;;;;;;14.48;7.25;;;;;;;20.85;58.47;99446.00;8355192;28;20160;-87
2022/08/04 00:18:16;;;;;;;10.30;6.68;;;;;;;20.83;58.98;99448.34;8361818;28;20555;-87
2022/08/04 00:22:21;;;;;;;13.38;6.70;;;;;;;20.77;59.07;99450.59;8361239;28;20136;-86
2022/08/04 00:26:22;;;;;;;10.85;7.35;;;;;;;20.78;59.05;99440.44;8361079;28;20060;-85
2022/08/04 00:30:23;;;;;;;8.30;7.03;;;;;;;20.71;59.30;99452.06;8360123;28;20045;-85
2022/08/04 00:34:28;;;;;;;12.30;7.28;;;;;;;20.65;59.77;99451.59;8361887;28;20063;-85
2022/08/04 00:38:30;;;;;;;12.40;7.47;;;;;;;20.60;59.88;99457.38;8413300;28;20044;-87
2022/08/04 00:42:43;;;;;;;11.23;7.53;;;;;;;20.58;59.79;99447.94;8422820;28;20036;-86
2022/08/04 00:47:35;;;;;;;9.98;7.40;;;;;;;20.53;60.07;99457.25;8424319;28;20047;-85
2022/08/04 00:51:39;;;;;;;16.15;7.75;;;;;;;20.51;59.85;99448.63;8349965;28;20098;-86
2022/08/04 00:56:26;;;;;;;14.85;7.43;;;;;;;20.43;60.04;99452.38;8356829;28;20090;-86
2022/08/04 01:00:30;;;;;;;15.15;7.75;;;;;;;20.42;60.19;99450.78;8347262;28;20133;-86
2022/08/04 01:04:34;;;;;;;10.48;7.15;;;;;;;20.40;60.22;99453.13;8325867;28;20045;-86
2022/08/04 01:08:59;;;;;;;12.15;7.60;;;;;;;20.36;60.47;99452.25;8295266;28;20049;-87
2022/08/04 01:13:16;;;;;;;13.50;7.53;;;;;;;20.36;60.34;99457.75;8258113;28;20154;-86
2022/08/04 01:17:37;;;;;;;12.90;7.78;;;;;;;20.31;60.38;99449.81;8260433;28;20054;-86
2022/08/04 01:22:11;;;;;;;13.20;7.40;;;;;;;20.30;60.47;99459.19;8327896;28;20461;-87
2022/08/04 01:26:38;;;;;;;12.90;7.60;;;;;;;20.23;60.63;99459.06;8356916;28;20472;-86
2022/08/04 01:30:42;;;;;;;8.95;7.25;;;;;;;20.22;60.87;99457.47;8343477;28;20517;-87
2022/08/04 01:34:49;;;;;;;15.68;7.88;;;;;;;20.14;61.32;99456.56;8317721;28;20053;-87
2022/08/04 01:38:53;;;;;;;13.45;7.47;;;;;;;20.13;61.26;99454.16;8346161;28;20049;-88
2022/08/04 01:42:54;;;;;;;19.75;8.25;;;;;;;20.08;61.36;99454.47;8336729;28;20474;-87
2022/08/04 01:46:55;;;;;;;10.73;7.38;;;;;;;20.08;61.05;99459.94;8356906;28;20056;-88
2022/08/04 01:50:59;;;;;;;11.60;8.70;;;;;;;20.06;61.23;99457.56;8356506;28;20037;-87
2022/08/04 01:55:03;;;;;;;12.75;7.88;;;;;;;20.02;61.80;99453.97;8332773;28;20048;-87
2022/08/04 01:59:04;;;;;;;13.77;8.40;;;;;;;19.95;61.98;99453.03;8282915;28;20046;-87
2022/08/04 02:03:05;;;;;;;13.75;9.18;;;;;;;19.94;62.07;99445.94;8274180;28;20049;-87
2022/08/04 02:07:18;;;;;;;9.80;8.10;;;;;;;19.93;62.02;99456.16;8308971;28;20054;-88
2022/08/04 02:11:22;;;;;;;10.70;8.27;;;;;;;19.91;62.16;99450.22;8322802;28;20060;-87
2022/08/04 02:15:28;;;;;;;13.07;8.77;;;;;;;19.86;62.31;99438.75;8306755;28;20053;-86
2022/08/04 02:19:44;;;;;;;11.77;8.95;;;;;;;19.83;62.50;99443.81;8304923;28;20053;-87
2022/08/04 02:23:48;;;;;;;12.45;9.18;;;;;;;19.83;62.50;99441.06;8322315;28;20041;-88
2022/08/04 02:28:14;;;;;;;17.13;9.13;;;;;;;19.81;62.61;99437.91;8311140;28;20049;-87
2022/08/04 02:32:24;;;;;;;18.45;9.55;;;;;;;19.76;62.82;99434.66;8359211;28;20032;-87
2022/08/04 02:36:41;;;;;;;18.63;9.75;;;;;;;19.74;62.80;99426.78;8358393;28;20040;-87
2022/08/04 02:40:42;;;;;;;20.17;9.80;;;;;;;19.71;63.11;99427.53;8352970;28;20418;-87
2022/08/04 02:44:48;;;;;;;26.55;11.25;;;;;;;19.69;63.19;99418.88;8358565;28;20052;-88
2022/08/04 02:48:52;;;;;;;16.48;11.20;;;;;;;19.68;63.19;99420.00;8358245;28;20095;-88
2022/08/04 02:52:55;;;;;;;20.42;11.88;;;;;;;19.65;63.32;99415.28;8345372;28;20048;-88
2022/08/04 02:56:57;;;;;;;17.65;11.27;;;;;;;19.61;63.65;99411.69;8355728;28;20052;-87
2022/08/04 03:00:58;;;;;;;16.65;11.48;;;;;;;19.60;63.52;99415.56;8357628;28;20048;-87
2022/08/04 03:05:07;;;;;;;21.45;12.02;;;;;;;19.55;63.87;99418.59;8358872;28;20037;-86
2022/08/04 03:09:26;;;;;;;16.50;11.32;;;;;;;19.54;63.75;99417.00;8360417;28;20048;-86
2022/08/04 03:13:36;;;;;;;14.35;11.45;;;;;;;19.52;63.89;99423.97;8360778;28;20064;-89
2022/08/04 03:17:59;;;;;;;22.98;10.95;;;;;;;19.47;63.96;99422.31;8360929;28;20049;-89
2022/08/04 03:22:00;;;;;;;18.45;10.52;;;;;;;19.48;63.74;99423.91;8356212;28;20132;-87
2022/08/04 03:26:27;;;;;;;21.85;10.70;;;;;;;19.47;63.88;99427.81;8351526;28;20060;-91
2022/08/04 03:30:48;;;;;;;16.05;10.63;;;;;;;19.48;63.97;99423.91;8273326;28;20072;-88
2022/08/04 03:35:10;;;;;;;13.27;10.27;;;;;;;19.49;63.85;99425.50;8262417;28;20081;-87
2022/08/04 03:39:33;;;;;;;17.88;11.20;;;;;;;19.47;63.99;99427.81;8263393;28;20054;-87
2022/08/04 03:43:49;;;;;;;14.82;10.65;;;;;;;19.45;64.03;99430.13;8262294;28;20547;-85
2022/08/04 03:47:55;;;;;;;16.33;10.10;;;;;;;19.45;63.87;99435.59;8275303;28;20050;-86
2022/08/04 03:56:58;;;;;;;15.73;10.48;;;;;;;19.46;64.33;99431.69;8285582;28;20547;-87
2022/08/04 04:01:05;;;;;;;;;;;;;;;19.46;64.33;99431.69;8286518;28;20068;-87
2022/08/04 04:05:43;;;;;;;16.70;10.55;;;;;;;19.46;64.43;99437.16;8305506;28;20408;-85
2022/08/04 04:10:05;;;;;;;17.65;10.90;;;;;;;19.49;64.79;99436.47;8361457;28;20045;-85
2022/08/04 04:14:25;;;;;;;18.77;11.10;;;;;;;19.47;64.91;99433.28;8363422;28;20461;-89
2022/08/04 04:18:46;;;;;;;20.67;11.57;;;;;;;19.51;65.07;99434.13;8366201;28;20044;-87
2022/08/04 04:22:57;;;;;;;17.48;10.60;;;;;;;19.52;65.08;99438.47;8367007;28;20056;-86
2022/08/04 04:27:04;;;;;;;14.63;10.52;;;;;;;19.55;65.01;99439.72;8358053;28;20449;-85
2022/08/04 04:31:43;;;;;;;19.00;10.02;;;;;;;19.62;64.70;99435.16;8360872;28;20056;-84
2022/08/04 04:36:18;;;;;;;14.03;9.57;;;;;;;19.69;64.51;99435.31;8307026;28;20494;-86
2022/08/04 04:40:33;;;;;;;15.25;8.55;;;;;;;19.77;64.19;99442.50;8259262;28;20707;-87
2022/08/04 04:44:47;;;;;;;13.27;8.85;;;;;;;19.86;63.93;99444.25;8255755;28;20049;-85
2022/08/04 04:49:00;;;;;;;14.57;9.18;;;;;;;19.96;63.63;99443.66;8259536;28;20141;-86
2022/08/04 04:53:12;;;;;;;12.60;8.73;;;;;;;20.06;63.49;99454.03;8240985;28;20062;-84
2022/08/04 04:57:22;;;;;;;12.68;8.43;;;;;;;20.12;63.44;99458.06;8244767;28;20046;-85
2022/08/04 05:01:38;;;;;;;20.98;9.40;;;;;;;20.19;63.23;99452.72;8258860;28;20185;-87
2022/08/04 05:05:57;;;;;;;11.98;8.63;;;;;;;20.26;63.53;99452.81;8260103;28;20058;-87
2022/08/04 05:10:26;;;;;;;11.73;10.05;;;;;;;20.31;63.65;99455.28;8245829;28;20054;-87
2022/08/04 05:14:42;;;;;;;19.90;10.60;;;;;;;20.37;63.40;99453.84;8245545;28;20064;-85
2022/08/04 05:18:47;;;;;;;15.90;9.55;;;;;;;20.44;63.23;99453.97;8359068;28;20457;-85
2022/08/04 05:23:01;;;;;;;12.40;9.50;;;;;;;20.48;63.43;99446.59;8359046;28;20610;-87
2022/08/04 05:27:05;;;;;;;15.13;9.60;;;;;;;20.54;63.56;99447.88;8360233;28;20056;-86
2022/08/04 05:31:31;;;;;;;16.23;9.82;;;;;;;20.61;63.55;99453.50;8358112;28;20042;-85
2022/08/04 05:35:36;;;;;;;27.05;10.30;;;;;;;20.71;63.48;99451.28;8358679;28;20049;-86
2022/08/04 05:39:49;;;;;;;15.57;10.57;;;;;;;20.79;63.30;99463.94;8324748;28;20041;-86
2022/08/04 05:43:52;;;;;;;19.30;10.93;;;;;;;20.87;63.24;99460.97;8358570;28;20136;-84
2022/08/04 05:47:53;;;;;;;12.40;9.60;;;;;;;20.93;63.93;99459.50;8385675;28;20448;-85
2022/08/04 05:51:58;;;;;;;12.18;10.30;;;;;;;20.99;63.66;99454.47;8388716;28;20040;-84
2022/08/04 05:56:00;;;;;;;17.10;10.02;;;;;;;21.07;63.89;99453.41;8388444;28;20147;-86
2022/08/04 06:00:05;;;;;;;13.00;9.32;;;;;;;21.15;64.01;99454.34;8388567;28;20087;-86
2022/08/04 06:04:07;;;;;;;14.38;9.85;;;;;;;21.21;64.21;99453.63;8342328;28;20045;-86
2022/08/04 06:08:09;;;;;;;17.88;10.88;;;;;;;21.29;64.06;99458.09;8274255;28;20398;-86
2022/08/04 06:12:37;;;;;;;16.25;9.70;;;;;;;21.41;63.90;99452.34;8347126;28;20094;-88
2022/08/04 06:16:41;;;;;;;14.88;9.85;;;;;;;21.49;63.78;99470.53;8194484;28;20050;-86
2022/08/04 06:20:44;;;;;;;13.55;10.07;;;;;;;21.57;64.00;99473.38;8219085;28;20124;-85
2022/08/04 06:24:46;;;;;;;17.48;9.57;;;;;;;21.68;63.73;99466.06;8229608;28;20061;-88
2022/08/04 06:28:50;;;;;;;12.13;9.55;;;;;;;21.77;64.06;99470.09;8223393;28;20604;-91
2022/08/04 06:32:55;;;;;;;18.08;10.13;;;;;;;21.86;64.45;99472.53;8242171;28;20046;-86
2022/08/04 06:36:57;;;;;;;20.77;11.05;;;;;;;21.94;64.56;99468.75;8234773;28;20050;-82
2022/08/04 06:41:02;;;;;;;21.42;9.82;;;;;;;22.03;64.75;99472.00;8235767;28;20050;-86
2022/08/04 06:45:05;;;;;;;16.13;10.52;;;;;;;22.12;64.19;99469.72;8240553;28;20101;-85
2022/08/04 06:49:06;;;;;;;16.25;9.88;;;;;;;22.28;63.59;99473.03;8253939;28;20046;-85
2022/08/04 06:53:08;;;;;;;14.73;9.65;;;;;;;22.37;63.29;99466.44;8324734;28;20079;-84
2022/08/04 06:57:10;;;;;;;14.77;9.85;;;;;;;22.45;63.77;99470.84;8362754;28;20045;-85
2022/08/04 07:01:16;;;;;;;12.80;9.70;;;;;;;22.55;63.25;99464.66;8355015;28;20056;-83
2022/08/04 07:05:18;;;;;;;14.80;9.75;;;;;;;22.66;62.98;99465.53;8364107;28;20508;-83
2022/08/04 07:09:19;;;;;;;15.52;10.10;;;;;;;22.77;62.69;99476.66;8365179;28;20490;-84
2022/08/04 07:13:21;;;;;;;14.68;9.07;;;;;;;22.90;62.55;99475.97;8360488;28;20443;-83
2022/08/04 07:17:22;;;;;;;13.30;9.50;;;;;;;23.03;62.49;99474.50;8363238;28;20053;-86
2022/08/04 07:21:26;;;;;;;17.38;8.85;;;;;;;23.16;61.91;99477.72;8360715;28;20207;-83
2022/08/04 07:25:27;;;;;;;12.00;9.15;;;;;;;23.29;61.13;99475.47;8377048;28;20063;-85
2022/08/04 07:29:28;;;;;;;14.65;7.80;;;;;;;23.40;60.46;99470.81;8360907;28;20386;-85
2022/08/04 07:33:29;;;;;;;21.52;8.82;;;;;;;23.53;59.98;99474.81;8344150;28;20068;-84
2022/08/04 07:37:34;;;;;;;18.00;8.90;;;;;;;23.63;60.06;99468.59;8376370;28;20049;-85
2022/08/04 07:41:35;;;;;;;14.45;8.45;;;;;;;23.76;59.95;99471.78;8354214;28;20056;-84
2022/08/04 07:45:36;;;;;;;17.85;8.80;;;;;;;23.92;59.35;99475.78;8357172;28;20045;-84
2022/08/04 07:49:37;;;;;;;12.13;9.00;;;;;;;24.04;58.84;99468.34;8357086;28;20049;-88
2022/08/04 07:53:39;;;;;;;13.45;8.70;;;;;;;24.18;58.66;99469.19;8361935;28;20048;-84
2022/08/04 07:57:40;;;;;;;9.80;8.20;;;;;;;24.30;58.04;99473.56;8421989;28;20040;-85
2022/08/04 08:01:41;;;;;;;11.23;8.23;;;;;;;24.43;57.88;99477.50;8423852;28;20101;-86
2022/08/04 08:05:42;;;;;;;13.68;8.98;;;;;;;24.57;57.72;99472.03;8426026;28;20094;-84
2022/08/04 08:09:43;;;;;;;11.65;8.68;;;;;;;24.71;57.13;99466.50;8359166;28;20501;-86
2022/08/04 08:13:44;;;;;;;17.58;9.13;;;;;;;24.82;57.14;99472.81;8355982;28;20141;-88
2022/08/04 08:17:46;;;;;;;12.05;9.02;;;;;;;24.97;56.51;99472.81;8353887;28;20045;-87
2022/08/04 08:21:50;;;;;;;10.75;7.25;;;;;;;25.10;55.75;99472.03;8339925;28;20060;-84
2022/08/04 08:25:51;;;;;;;11.60;7.78;;;;;;;25.24;55.38;99466.47;8325243;28;20418;-85
2022/08/04 08:29:52;;;;;;;11.35;8.27;;;;;;;25.38;55.43;99468.41;8325626;28;20049;-83
2022/08/04 08:33:53;;;;;;;10.75;7.70;;;;;;;25.54;54.51;99479.81;8325110;28;20061;-83
2022/08/04 08:37:57;;;;;;;10.25;7.60;;;;;;;25.68;54.17;99475.47;8309075;28;20069;-86
2022/08/04 08:42:35;;;;;;;12.45;7.45;;;;;;;25.80;52.82;99475.03;8374826;28;20515;-84
2022/08/04 08:46:57;;;;;;;8.95;7.25;;;;;;;25.93;52.54;99473.38;8386699;28;20401;-85
2022/08/04 08:51:01;;;;;;;10.25;7.20;;;;;;;26.11;51.71;99485.16;8388277;28;20041;-83
2022/08/04 08:55:45;;;;;;;17.90;8.60;;;;;;;26.23;50.89;99476.41;8379523;28;20088;-84
2022/08/04 08:59:46;;;;;;;8.82;7.45;;;;;;;26.38;51.82;99461.31;8284692;28;20133;-84
2022/08/04 09:04:31;;;;;;;10.63;8.05;;;;;;;26.57;50.48;99473.03;8289866;28;20421;-84
2022/08/04 09:09:00;;;;;;;8.95;6.90;;;;;;;26.68;50.47;99468.19;8258259;28;20073;-85
2022/08/04 09:13:20;;;;;;;14.48;7.50;;;;;;;26.82;49.42;99468.06;8240186;28;20097;-84
2022/08/04 09:18:00;;;;;;;9.88;7.07;;;;;;;26.93;49.99;99468.78;8257476;28;20511;-84
2022/08/04 09:22:28;;;;;;;13.23;6.60;;;;;;;27.00;48.34;99467.94;8257088;28;20054;-84
2022/08/04 09:26:37;;;;;;;10.80;5.75;;;;;;;27.11;47.20;99469.44;8257528;28;20064;-85
2022/08/04 09:30:42;;;;;;;7.78;6.05;;;;;;;27.26;47.64;99465.31;8258526;28;20508;-83
2022/08/04 09:35:02;;;;;;;9.90;6.40;;;;;;;27.44;46.82;99464.34;8300766;28;20132;-83
2022/08/04 09:39:09;;;;;;;11.63;6.13;;;;;;;27.60;46.30;99462.56;8324163;28;20059;-87
2022/08/04 09:43:42;;;;;;;9.77;5.63;;;;;;;27.69;45.61;99464.88;8329364;28;20503;-84
2022/08/04 09:47:56;;;;;;;6.25;5.65;;;;;;;27.81;44.98;99461.53;8356744;28;20135;-84
2022/08/04 09:52:05;;;;;;;12.13;6.03;;;;;;;27.95;44.74;99466.91;8336634;28;20493;-83
2022/08/04 09:56:22;;;;;;;8.35;5.95;;;;;;;28.02;45.13;99450.13;8349878;28;20115;-85
2022/08/04 10:00:28;;;;;;;9.65;5.78;;;;;;;28.12;44.97;99454.03;8354974;28;20055;-84
2022/08/04 10:04:30;;;;;;;10.10;5.65;;;;;;;28.16;44.56;99460.31;8321979;28;20065;-84
2022/08/04 10:08:45;;;;;;;6.65;5.85;;;;;;;28.28;44.99;99456.16;8339576;28;20051;-84
2022/08/04 10:13:08;;;;;;;6.70;5.30;;;;;;;28.31;43.12;99449.75;8333669;28;20136;-86
2022/08/04 10:17:19;;;;;;;6.30;4.78;;;;;;;28.41;42.57;99454.38;8347445;28;20049;-89
2022/08/04 10:21:26;;;;;;;6.40;4.40;;;;;;;28.47;42.42;99452.69;8348271;28;20075;-86
2022/08/04 10:25:44;;;;;;;7.45;4.80;;;;;;;28.60;41.80;99450.91;8353623;28;20558;-86
2022/08/04 10:29:46;;;;;;;7.10;4.82;;;;;;;28.70;41.18;99443.59;8346167;28;20052;-87
2022/08/04 10:33:56;;;;;;;9.85;4.88;;;;;;;28.79;39.93;99441.09;8357245;28;20045;-91
2022/08/04 10:38:30;;;;;;;4.97;4.43;;;;;;;28.90;40.66;99448.03;8358147;28;20068;-85
2022/08/04 10:42:35;;;;;;;9.05;4.18;;;;;;;29.02;40.14;99443.06;8358618;28;20175;-85
2022/08/04 10:46:43;;;;;;;8.90;4.82;;;;;;;29.10;40.83;99444.50;8351721;28;20595;-85
2022/08/04 10:50:52;;;;;;;14.48;5.10;;;;;;;29.16;41.10;99438.03;8359211;28;20045;-84
2022/08/04 10:54:56;;;;;;;5.85;5.03;;;;;;;29.18;40.82;99440.41;8337279;28;20057;-84
2022/08/04 10:59:02;;;;;;;9.02;5.22;;;;;;;29.24;40.84;99427.56;8356783;28;20041;-87
2022/08/04 11:03:07;;;;;;;6.97;4.75;;;;;;;29.29;40.75;99427.06;8358383;28;20049;-84
2022/08/04 11:07:09;;;;;;;7.72;4.60;;;;;;;29.44;39.01;99425.59;8359415;28;20059;-84
2022/08/04 11:11:43;;;;;;;7.40;5.07;;;;;;;29.57;39.28;99423.72;8391222;28;20464;-84
2022/08/04 11:15:48;;;;;;;5.95;4.78;;;;;;;29.61;39.46;99418.88;8305532;28;20046;-84
2022/08/04 11:20:11;;;;;;;7.00;5.10;;;;;;;29.70;40.21;99416.31;8256750;28;20050;-84
2022/08/04 11:24:26;;;;;;;5.68;4.57;;;;;;;29.79;39.98;99413.72;8245405;28;20050;-84
2022/08/04 11:29:06;;;;;;;13.55;4.53;;;;;;;29.91;40.28;99414.31;8244382;28;20563;-84
2022/08/04 11:33:34;;;;;;;6.85;5.00;;;;;;;30.00;39.43;99409.72;8262674;28;20068;-85
2022/08/04 11:38:08;;;;;;;8.55;4.78;;;;;;;30.07;38.78;99406.00;8278278;28;20054;-86
2022/08/04 11:42:15;;;;;;;8.35;4.82;;;;;;;30.14;39.05;99406.59;8246504;28;20064;-87
2022/08/04 11:46:25;;;;;;;7.05;4.82;;;;;;;30.17;37.83;99404.97;8277897;28;20092;-87
2022/08/04 11:50:40;;;;;;;7.57;4.15;;;;;;;30.25;38.29;99399.97;8298831;28;20063;-88
2022/08/04 11:54:43;;;;;;;4.82;4.20;;;;;;;30.38;38.35;99398.88;8350854;28;20049;-86
2022/08/04 11:58:44;;;;;;;5.47;4.60;;;;;;;30.40;38.38;99396.44;8362816;28;20075;-86
2022/08/04 12:03:03;;;;;;;5.30;4.78;;;;;;;30.46;38.26;99400.25;8363285;28;20475;-89
2022/08/04 12:07:26;;;;;;;8.90;4.80;;;;;;;30.54;38.57;99396.13;8363293;28;20482;-86
2022/08/04 12:11:32;;;;;;;6.63;4.82;;;;;;;30.53;36.64;99394.53;8363841;28;20247;-86
2022/08/04 12:15:44;;;;;;;5.88;4.43;;;;;;;30.60;37.67;99383.22;8349614;28;20532;-84
2022/08/04 12:19:51;;;;;;;6.03;4.28;;;;;;;30.72;37.60;99400.47;8328537;28;20045;-84
2022/08/04 12:23:56;;;;;;;5.18;4.55;;;;;;;30.75;37.57;99391.22;8348963;28;20086;-84
2022/08/04 12:28:05;;;;;;;6.53;4.57;;;;;;;30.78;37.70;99393.13;8355290;28;20486;-84
2022/08/04 12:32:15;;;;;;;7.00;4.90;;;;;;;30.72;37.78;99389.31;8362713;28;20049;-83
2022/08/04 12:36:31;;;;;;;8.15;4.80;;;;;;;30.76;38.23;99390.00;8362948;28;20572;-83
2022/08/04 12:40:53;;;;;;;10.57;4.75;;;;;;;30.86;38.19;99384.13;8364449;28;20041;-86
2022/08/04 12:44:55;;;;;;;6.18;4.40;;;;;;;30.91;37.03;99385.59;8362248;28;20547;-89
2022/08/04 12:49:00;;;;;;;8.32;5.00;;;;;;;30.98;36.89;99379.84;8361480;28;20136;-86
2022/08/04 12:53:11;;;;;;;5.80;4.55;;;;;;;30.96;36.67;99382.28;8349833;28;20074;-85
2022/08/04 12:57:13;;;;;;;7.25;4.38;;;;;;;31.01;37.18;99373.38;8361567;28;20048;-86
2022/08/04 13:01:17;;;;;;;5.00;3.85;;;;;;;31.11;36.32;99365.97;8360781;28;20053;-87
2022/08/04 13:05:20;;;;;;;6.25;4.00;;;;;;;31.15;35.06;99373.00;8350556;28;20472;-88
2022/08/04 13:09:23;;;;;;;5.10;4.35;;;;;;;31.18;35.18;99360.97;8360778;28;20053;-85
2022/08/04 13:13:26;;;;;;;8.57;4.35;;;;;;;31.23;35.90;99360.44;8360284;28;20056;-84
2022/08/04 13:17:41;;;;;;;7.82;3.92;;;;;;;31.25;35.04;99349.59;8322450;28;20406;-86
2022/08/04 13:21:44;;;;;;;7.40;3.67;;;;;;;31.32;34.61;99360.56;8360141;28;20526;-86
2022/08/04 13:25:47;;;;;;;5.00;3.50;;;;;;;31.43;34.41;99361.03;8360112;28;20048;-87
2022/08/04 13:29:51;;;;;;;6.88;3.50;;;;;;;31.44;34.61;99345.88;8360366;28;20056;-87
2022/08/04 13:33:54;;;;;;;7.25;3.70;;;;;;;31.61;35.73;99354.19;8360759;28;20052;-88
2022/08/04 13:37:56;;;;;;;6.75;4.10;;;;;;;32.58;33.39;99337.47;8361515;28;20818;-92
2022/08/04 13:42:01;;;;;;;4.85;4.20;;;;;;;33.47;32.10;99351.84;8359006;28;20057;-87
2022/08/04 13:46:05;;;;;;;5.82;3.72;;;;;;;34.64;30.45;99352.78;8359443;28;20036;-85
2022/08/04 13:50:26;;;;;;;7.82;3.63;;;;;;;35.32;29.90;99350.63;8359320;28;20624;-87
2022/08/04 13:54:41;;;;;;;4.95;4.03;;;;;;;36.33;29.39;99346.22;8359500;28;20049;-88
2022/08/04 13:58:44;;;;;;;7.38;4.53;;;;;;;37.13;28.28;99336.09;8357661;28;20049;-86
2022/08/04 14:02:49;;;;;;;5.50;4.55;;;;;;;37.66;27.63;99344.47;8359289;28;20053;-88
2022/08/04 14:06:55;;;;;;;7.10;4.45;;;;;;;38.90;26.71;99336.50;8360597;28;20048;-88
2022/08/04 14:10:56;;;;;;;6.25;4.80;;;;;;;39.88;25.90;99328.69;8360062;28;20053;-87
2022/08/04 14:14:57;;;;;;;6.78;4.68;;;;;;;40.41;25.16;99328.78;8359426;28;20057;-87
2022/08/04 14:19:00;;;;;;;9.23;4.32;;;;;;;40.98;24.76;99319.22;8359350;28;20040;-88
2022/08/04 14:23:01;;;;;;;6.20;4.32;;;;;;;40.68;24.71;99321.72;8358251;28;20053;-89
2022/08/04 14:27:05;;;;;;;9.63;4.55;;;;;;;40.83;24.22;99324.31;8359529;28;20041;-89
2022/08/04 14:31:11;;;;;;;4.97;4.22;;;;;;;41.03;24.71;99324.16;8358651;28;20048;-86
2022/08/04 14:35:12;;;;;;;6.50;4.30;;;;;;;41.31;24.03;99316.47;8359545;28;20429;-85
2022/08/04 14:39:13;;;;;;;5.65;3.95;;;;;;;41.35;23.37;99321.13;8358598;28;20107;-87
2022/08/04 14:43:18;;;;;;;7.75;4.30;;;;;;;41.20;23.04;99316.44;8358008;28;20391;-85
2022/08/04 14:47:37;;;;;;;6.53;4.15;;;;;;;40.68;23.83;99315.28;8356071;28;20044;-85
2022/08/04 14:51:40;;;;;;;7.18;4.60;;;;;;;40.82;23.24;99311.47;8357931;28;20052;-85
2022/08/04 14:55:53;;;;;;;5.88;4.88;;;;;;;40.58;23.50;99305.44;8359428;28;20524;-86
2022/08/04 14:59:54;;;;;;;6.40;4.30;;;;;;;41.60;23.59;99308.78;8356440;28;20044;-87
2022/08/04 15:03:56;;;;;;;7.10;4.28;;;;;;;42.62;22.31;99303.09;8357619;28;20037;-87
2022/08/04 15:07:57;;;;;;;7.13;4.45;;;;;;;42.08;22.17;99302.78;8364882;28;20068;-86
2022/08/04 15:11:58;;;;;;;5.35;4.85;;;;;;;40.34;23.82;99298.16;8361222;28;20067;-85
2022/08/04 15:15:59;;;;;;;6.13;4.53;;;;;;;39.92;24.42;99295.34;8360372;28;20057;-86
2022/08/04 15:20:01;;;;;;;8.15;4.25;;;;;;;40.41;23.59;99297.66;8364373;28;20129;-87
2022/08/04 15:24:02;;;;;;;7.32;3.80;;;;;;;41.00;22.73;99291.16;8365451;28;20374;-85
2022/08/04 15:28:04;;;;;;;8.02;3.83;;;;;;;40.44;23.02;99278.91;8362978;28;20561;-86
2022/08/04 15:32:06;;;;;;;4.72;3.88;;;;;;;39.19;24.26;99279.81;8363239;28;20044;-86
2022/08/04 15:36:15;;;;;;;5.03;3.55;;;;;;;37.72;25.30;99280.53;8365622;28;20079;-85
2022/08/04 15:40:43;;;;;;;10.50;4.25;;;;;;;36.68;26.79;99272.53;8358716;28;20049;-85
2022/08/04 15:44:50;;;;;;;5.28;4.20;;;;;;;35.64;28.07;99269.72;8376223;28;20135;-86
2022/08/04 15:48:51;;;;;;;7.20;4.25;;;;;;;35.09;28.43;99264.25;8364256;28;20164;-86
2022/08/04 15:52:55;;;;;;;6.43;4.25;;;;;;;34.42;29.18;99268.03;8364551;28;20057;-85
2022/08/04 15:56:59;;;;;;;35.67;23.15;;;;;;;33.89;30.04;99259.81;8365242;28;20044;-85
2022/08/04 16:01:00;;;;;;;21.38;13.35;;;;;;;33.49;30.40;99264.63;8346218;28;20570;-85
2022/08/04 16:05:24;;;;;;;7.82;5.22;;;;;;;32.96;30.85;99264.63;8363863;28;20037;-87
2022/08/04 16:09:26;;;;;;;7.53;4.75;;;;;;;32.74;31.53;99261.03;8357565;28;20065;-86
2022/08/04 16:13:27;;;;;;;5.43;4.25;;;;;;;32.53;31.92;99250.59;8359717;28;20064;-85
2022/08/04 16:17:28;;;;;;;8.30;4.65;;;;;;;32.23;32.07;99254.84;8326881;28;20080;-86
2022/08/04 16:21:34;;;;;;;6.10;4.60;;;;;;;32.09;33.02;99247.72;8353669;28;20103;-85
2022/08/04 16:25:43;;;;;;;7.65;5.55;;;;;;;31.86;33.28;99253.66;8307956;28;20050;-85
2022/08/04 16:29:48;;;;;;;6.97;4.97;;;;;;;31.57;33.44;99241.84;8326057;28;20430;-85
2022/08/04 16:33:50;;;;;;;7.40;5.40;;;;;;;31.34;33.40;99246.50;8349313;28;20405;-86
2022/08/04 16:37:54;;;;;;;8.07;5.55;;;;;;;31.24;34.80;99247.63;8355480;28;20080;-86
2022/08/04 16:41:55;;;;;;;8.07;4.82;;;;;;;31.03;34.68;99245.47;8365915;28;20045;-85
2022/08/04 16:45:58;;;;;;;5.97;5.07;;;;;;;30.85;35.32;99242.38;8331211;28;20098;-86
2022/08/04 16:50:01;;;;;;;7.68;4.25;;;;;;;30.71;35.86;99242.78;8362626;28;20040;-85
2022/08/04 16:54:02;;;;;;;7.55;4.68;;;;;;;30.47;36.58;99243.03;8363348;28;20048;-84
2022/08/04 16:58:03;;;;;;;11.85;5.30;;;;;;;30.22;37.56;99228.94;8362199;28;20090;-84
2022/08/04 17:02:05;;;;;;;7.20;5.30;;;;;;;30.04;38.11;99234.19;8361862;28;20506;-84
2022/08/04 17:06:13;;;;;;;6.78;5.18;;;;;;;29.79;39.01;99230.00;8376514;28;20099;-86
2022/08/04 17:10:14;;;;;;;7.50;5.60;;;;;;;29.61;38.37;99235.19;8361798;28;20045;-86
2022/08/04 17:14:26;;;;;;;8.77;5.40;;;;;;;29.48;38.69;99241.91;8361221;28;20057;-85
2022/08/04 17:18:30;;;;;;;7.18;5.03;;;;;;;29.33;39.23;99241.44;8357039;28;20139;-86
2022/08/04 17:22:31;;;;;;;11.15;5.25;;;;;;;29.13;39.84;99240.66;8361980;28;20037;-85
2022/08/04 17:26:35;;;;;;;10.25;5.68;;;;;;;28.92;40.59;99234.31;8361205;28;20106;-86
2022/08/04 17:30:36;;;;;;;10.57;5.25;;;;;;;28.82;40.80;99240.88;8360074;28;20092;-86
2022/08/04 17:34:37;;;;;;;6.78;5.20;;;;;;;28.69;41.12;99231.63;8359817;28;20413;-85
2022/08/04 17:38:43;;;;;;;7.78;5.63;;;;;;;28.52;41.92;99232.75;8361410;28;20096;-85
2022/08/04 17:42:44;;;;;;;14.50;5.75;;;;;;;28.39;41.83;99240.16;8354287;28;20417;-86
2022/08/04 17:46:45;;;;;;;15.80;5.35;;;;;;;28.27;41.98;99235.19;8359816;28;20037;-85
2022/08/04 17:50:47;;;;;;;13.13;6.28;;;;;;;28.14;42.63;99238.59;8324265;28;20506;-85
2022/08/04 17:54:58;;;;;;;17.05;8.23;;;;;;;27.98;42.87;99232.88;8356778;28;20044;-86
2022/08/04 17:59:33;;;;;;;11.48;7.65;;;;;;;27.80;43.40;99237.97;8359281;28;20502;-85
2022/08/04 18:03:34;;;;;;;11.95;5.95;;;;;;;27.63;43.50;99236.25;8354348;28;20565;-86
2022/08/04 18:07:41;;;;;;;11.15;6.40;;;;;;;27.47;43.94;99230.53;8349953;28;20072;-85
2022/08/04 18:11:51;;;;;;;11.23;5.70;;;;;;;27.34;44.49;99226.75;8323035;28;20057;-86
2022/08/04 18:16:04;;;;;;;12.63;5.88;;;;;;;27.17;44.80;99229.38;8355473;28;20048;-85
2022/08/04 18:20:11;;;;;;;12.18;6.25;;;;;;;27.01;45.11;99226.41;8346196;28;20462;-87
2022/08/04 18:24:12;;;;;;;12.35;5.90;;;;;;;26.88;45.58;99228.16;8339471;28;20056;-87
2022/08/04 18:28:13;;;;;;;20.38;6.20;;;;;;;26.73;46.01;99229.50;8357622;28;20501;-87
2022/08/04 18:32:14;;;;;;;12.25;5.80;;;;;;;26.58;46.38;99236.41;8352188;28;20041;-87
2022/08/04 18:36:15;;;;;;;13.13;6.40;;;;;;;26.42;46.30;99229.44;8331380;28;20252;-87
2022/08/04 18:40:16;;;;;;;14.07;6.20;;;;;;;26.30;46.95;99232.72;8345200;28;20057;-87
2022/08/04 18:44:19;;;;;;;15.48;5.95;;;;;;;26.18;47.23;99230.44;8370526;28;20076;-88
2022/08/04 18:48:20;;;;;;;13.95;5.93;;;;;;;26.07;47.69;99229.75;8365701;28;20118;-89
2022/08/04 18:52:21;;;;;;;13.73;6.28;;;;;;;25.97;48.33;99230.63;8397445;28;20056;-90
2022/08/04 18:56:22;;;;;;;16.92;5.68;;;;;;;25.88;48.34;99238.63;8363232;28;20045;-88
2022/08/04 19:00:23;;;;;;;10.05;6.07;;;;;;;25.80;47.93;99243.44;8365938;28;20575;-88
2022/08/04 19:04:24;;;;;;;9.15;6.45;;;;;;;25.69;48.35;99247.50;8297684;28;20086;-88
2022/08/04 19:08:25;;;;;;;10.45;5.60;;;;;;;25.64;48.04;99245.94;8362011;28;20053;-90
2022/08/04 19:12:27;;;;;;;8.43;5.65;;;;;;;25.60;48.36;99245.16;8361147;28;20053;-86
2022/08/04 19:16:30;;;;;;;14.20;5.22;;;;;;;25.55;48.34;99248.31;8365348;28;20642;-86
2022/08/04 19:20:31;;;;;;;10.75;5.95;;;;;;;25.49;48.27;99247.97;8364571;28;20041;-86
2022/08/04 19:24:32;;;;;;;18.05;5.82;;;;;;;25.46;47.87;99246.03;8363981;28;20056;-87